Time;durP1;ratioP1;P1;durP2;ratioP2;P2;SDS_P1;SDS_P2;PMS_P1;PMS_P2;Temp;Humidity;BMP_temperature;BMP_pressure;BME280_temperature;BME280_humidity;BME280_pressure;Samples;Min_cycle;Max_cycle;Signal;HPM_P1;HPM_P2
2023/03/06 00:00:22;;;;;;;8.20;1.52;;;2.90;99.90;;;;;;5106514;28;20036;-85
2023/03/06 00:02:48;;;;;;;4.75;1.33;;;2.90;99.90;;;;;;5091400;28;20039;-85
2023/03/06 00:05:15;;;;;;;3.42;1.40;;;2.90;99.90;;;;;;5104338;28;20035;-85
2023/03/06 00:07:41;;;;;;;4.85;1.45;;;2.90;99.90;;;;;;5088833;28;20087;-84
2023/03/06 00:10:07;;;;;;;3.55;1.05;;;2.80;99.90;;;;;;5106610;28;20044;-84
2023/03/06 00:12:33;;;;;;;3.85;1.30;;;2.70;99.90;;;;;;5086793;28;20036;-85
2023/03/06 00:14:58;;;;;;;4.20;1.15;;;2.60;99.90;;;;;;5105226;28;20054;-84
2023/03/06 00:17:24;;;;;;;3.72;1.27;;;2.50;99.90;;;;;;5107476;28;20120;-84
2023/03/06 00:19:49;;;;;;;2.78;1.10;;;2.40;99.90;;;;;;5107183;28;20036;-85
2023/03/06 00:22:15;;;;;;;1.80;0.93;;;2.30;99.90;;;;;;5090100;28;20047;-84
2023/03/06 00:24:41;;;;;;;4.32;1.40;;;2.20;99.90;;;;;;5109770;27;20475;-84
2023/03/06 00:27:08;;;;;;;2.35;1.38;;;2.10;99.90;;;;;;5106510;28;20037;-84
2023/03/06 00:29:34;;;;;;;2.03;0.93;;;2.10;99.90;;;;;;5094761;28;20039;-84
2023/03/06 00:31:59;;;;;;;2.35;0.90;;;2.00;99.90;;;;;;5110462;28;20425;-84
2023/03/06 00:34:25;;;;;;;2.63;0.82;;;2.00;99.90;;;;;;5132214;27;20126;-85
2023/03/06 00:36:51;;;;;;;3.33;0.85;;;2.00;99.90;;;;;;5090056;28;20459;-85
2023/03/06 00:39:17;;;;;;;1.90;0.90;;;2.00;99.90;;;;;;5106019;28;20035;-85
2023/03/06 00:41:42;;;;;;;2.83;1.10;;;2.00;99.90;;;;;;5123277;28;20513;-85
2023/03/06 00:44:08;;;;;;;5.32;1.00;;;2.00;99.90;;;;;;5105780;28;20032;-85
2023/03/06 00:46:34;;;;;;;3.53;1.30;;;2.00;99.90;;;;;;5089996;28;20075;-85
2023/03/06 00:48:59;;;;;;;2.22;1.25;;;2.00;99.90;;;;;;5106857;28;20580;-85
2023/03/06 00:51:25;;;;;;;2.33;1.25;;;2.00;99.90;;;;;;5089331;28;20054;-85
2023/03/06 00:53:50;;;;;;;3.10;1.15;;;2.10;99.90;;;;;;5107611;28;20108;-84
2023/03/06 00:56:16;;;;;;;3.40;1.50;;;2.10;99.90;;;;;;5087510;28;20089;-84
2023/03/06 00:58:41;;;;;;;2.75;1.30;;;2.10;99.90;;;;;;5125780;27;20028;-85
2023/03/06 01:01:07;;;;;;;3.47;1.50;;;2.20;99.90;;;;;;5089437;28;20084;-85
2023/03/06 01:03:33;;;;;;;3.67;1.60;;;2.20;99.90;;;;;;5090467;28;20134;-85
2023/03/06 01:05:58;;;;;;;3.70;1.50;;;2.20;99.90;;;;;;5092967;28;20500;-85
2023/03/06 01:08:24;;;;;;;2.90;1.33;;;2.20;99.90;;;;;;5094619;28;20032;-85
2023/03/06 01:10:49;;;;;;;2.53;1.50;;;2.30;99.90;;;;;;5135221;27;20036;-84
2023/03/06 01:13:15;;;;;;;6.70;1.60;;;2.30;99.90;;;;;;5108722;27;20180;-84
2023/03/06 01:15:41;;;;;;;2.60;1.20;;;2.30;99.90;;;;;;5110107;28;20043;-85
2023/03/06 01:18:06;;;;;;;5.25;1.60;;;2.30;99.90;;;;;;5110776;27;20517;-84
2023/03/06 01:20:32;;;;;;;4.40;1.90;;;2.40;99.90;;;;;;5090780;28;20040;-84
2023/03/06 01:22:57;;;;;;;3.35;1.67;;;2.30;99.90;;;;;;5109834;27;20050;-84
2023/03/06 01:25:24;;;;;;;3.80;1.35;;;2.30;99.90;;;;;;5109644;27;20032;-85
2023/03/06 01:27:50;;;;;;;5.03;1.63;;;2.30;99.90;;;;;;5135147;27;20035;-85
2023/03/06 01:30:16;;;;;;;3.85;1.52;;;2.30;99.90;;;;;;5093029;28;20081;-85
2023/03/06 01:32:42;;;;;;;7.05;1.40;;;2.30;99.90;;;;;;5116798;27;20472;-85
2023/03/06 01:35:08;;;;;;;3.30;1.63;;;2.30;99.90;;;;;;5108330;28;20058;-85
2023/03/06 01:37:38;;;;;;;3.17;1.40;;;2.30;99.90;;;;;;5093728;28;20039;-85
2023/03/06 01:40:05;;;;;;;5.03;1.90;;;2.30;99.90;;;;;;5100625;27;20398;-85
2023/03/06 01:42:31;;;;;;;3.92;1.40;;;2.40;99.90;;;;;;5109476;27;20468;-85
2023/03/06 01:45:02;;;;;;;3.00;1.55;;;2.40;99.90;;;;;;5092728;28;20111;-85
2023/03/06 01:47:28;;;;;;;6.55;1.80;;;2.40;99.90;;;;;;5142688;27;20035;-85
2023/03/06 01:49:54;;;;;;;3.00;1.80;;;2.40;99.90;;;;;;5128802;27;20092;-85
2023/03/06 01:52:24;;;;;;;4.18;1.50;;;2.50;99.90;;;;;;5128422;27;20054;-85
2023/03/06 01:54:56;;;;;;;2.95;1.50;;;2.50;99.90;;;;;;5106835;27;20042;-85
2023/03/06 01:57:34;;;;;;;3.58;1.67;;;2.50;99.90;;;;;;5095363;28;20038;-85
2023/03/06 02:00:08;;;;;;;3.38;1.45;;;2.50;99.90;;;;;;5087423;28;20491;-85
2023/03/06 02:02:34;;;;;;;3.88;1.67;;;2.50;99.90;;;;;;5111211;27;20503;-85
2023/03/06 02:05:03;;;;;;;4.15;1.42;;;2.50;99.90;;;;;;5108577;28;20612;-85
2023/03/06 02:07:29;;;;;;;3.15;1.45;;;2.50;99.90;;;;;;5123612;27;20494;-85
2023/03/06 02:09:54;;;;;;;3.28;1.60;;;2.40;99.90;;;;;;5111766;27;20040;-85
2023/03/06 02:12:20;;;;;;;2.42;1.27;;;2.40;99.90;;;;;;5104041;28;20392;-85
2023/03/06 02:14:47;;;;;;;1.88;1.45;;;2.40;99.90;;;;;;5108762;28;20494;-85
2023/03/06 02:17:15;;;;;;;3.72;1.40;;;2.40;99.90;;;;;;5101465;27;20147;-85
2023/03/06 02:20:02;;;;;;;2.15;1.15;;;2.40;99.90;;;;;;5104169;28;20061;-85
2023/03/06 02:22:38;;;;;;;3.92;1.50;;;2.30;99.90;;;;;;5091802;28;20036;-84
2023/03/06 02:25:31;;;;;;;1.70;1.20;;;2.30;99.90;;;;;;5108764;27;20490;-85
2023/03/06 02:27:57;;;;;;;2.33;1.17;;;2.30;99.90;;;;;;5118205;27;20040;-84
2023/03/06 02:30:25;;;;;;;1.95;1.10;;;2.30;99.90;;;;;;5119461;27;20509;-85
2023/03/06 02:32:50;;;;;;;1.52;0.93;;;2.20;99.90;;;;;;5113396;27;20028;-85
2023/03/06 02:35:25;;;;;;;1.88;1.00;;;2.10;99.90;;;;;;5112810;27;20092;-85
2023/03/06 02:37:52;;;;;;;1.00;0.80;;;2.10;99.90;;;;;;5080517;28;20040;-84
2023/03/06 02:40:20;;;;;;;1.25;0.90;;;2.10;99.90;;;;;;5108359;27;20043;-85
2023/03/06 02:42:49;;;;;;;1.63;1.00;;;2.10;99.90;;;;;;5091196;28;20028;-85
2023/03/06 02:45:30;;;;;;;1.27;0.90;;;2.10;99.90;;;;;;5103640;27;20138;-84
2023/03/06 02:47:55;;;;;;;0.85;0.70;;;2.10;99.90;;;;;;5108446;27;20522;-85
2023/03/06 02:50:21;;;;;;;1.05;0.68;;;2.00;99.90;;;;;;5110120;28;20169;-85
2023/03/06 02:52:46;;;;;;;0.80;0.65;;;2.00;99.90;;;;;;5111399;28;20114;-85
2023/03/06 02:55:12;;;;;;;1.08;0.70;;;2.00;99.90;;;;;;5110942;28;20114;-85
2023/03/06 02:57:38;;;;;;;0.80;0.70;;;1.90;99.90;;;;;;5112056;27;20036;-85
2023/03/06 03:00:06;;;;;;;0.98;0.70;;;1.90;99.90;;;;;;5110939;27;20040;-84
2023/03/06 03:02:31;;;;;;;0.73;0.60;;;1.90;99.90;;;;;;5107766;28;20039;-85
2023/03/06 03:04:57;;;;;;;1.67;0.75;;;1.90;99.90;;;;;;5110830;28;20032;-85
2023/03/06 03:07:22;;;;;;;0.95;0.60;;;1.90;99.90;;;;;;5100842;28;20043;-85
2023/03/06 03:09:48;;;;;;;1.42;0.70;;;1.90;99.90;;;;;;5141836;27;20526;-85
2023/03/06 03:12:13;;;;;;;1.13;0.77;;;1.90;99.90;;;;;;5088279;27;20048;-85
2023/03/06 03:14:39;;;;;;;2.03;0.90;;;1.90;99.90;;;;;;5136580;27;20043;-84
2023/03/06 03:17:04;;;;;;;1.77;1.05;;;1.90;99.90;;;;;;5109860;27;20042;-85
2023/03/06 03:19:30;;;;;;;1.90;1.00;;;1.90;99.90;;;;;;5113943;27;20069;-84
2023/03/06 03:21:55;;;;;;;1.38;0.95;;;1.80;99.90;;;;;;5112719;27;20036;-85
2023/03/06 03:24:21;;;;;;;1.50;1.00;;;1.80;99.90;;;;;;5107995;28;20410;-84
2023/03/06 03:26:46;;;;;;;1.98;1.02;;;1.70;99.90;;;;;;5105273;28;20495;-85
2023/03/06 03:29:12;;;;;;;1.63;0.98;;;1.70;99.90;;;;;;5115786;27;20452;-85
2023/03/06 03:31:38;;;;;;;2.05;1.20;;;1.70;99.90;;;;;;5088088;28;20035;-84
2023/03/06 03:34:03;;;;;;;1.33;1.00;;;1.70;99.90;;;;;;5092343;27;20571;-85
2023/03/06 03:36:29;;;;;;;1.70;1.10;;;1.70;99.90;;;;;;5089703;28;20035;-84
2023/03/06 03:38:56;;;;;;;2.67;1.20;;;1.70;99.90;;;;;;5097948;27;20590;-84
2023/03/06 03:41:21;;;;;;;1.25;0.85;;;1.60;99.90;;;;;;5108864;28;20039;-84
2023/03/06 03:43:47;;;;;;;1.95;0.90;;;1.60;99.90;;;;;;5106649;28;20027;-84
2023/03/06 03:46:12;;;;;;;1.88;1.10;;;1.60;99.90;;;;;;5116701;27;20050;-84
2023/03/06 03:48:38;;;;;;;1.48;0.90;;;1.60;99.90;;;;;;5108314;27;20032;-84
2023/03/06 03:51:15;;;;;;;2.05;0.95;;;1.50;99.90;;;;;;5107045;28;20545;-84
2023/03/06 03:53:41;;;;;;;1.23;0.90;;;1.50;99.90;;;;;;5107318;28;20032;-85
2023/03/06 03:56:07;;;;;;;1.83;1.00;;;1.50;99.90;;;;;;5091618;28;20080;-84
2023/03/06 03:58:33;;;;;;;1.60;1.10;;;1.40;99.90;;;;;;5091098;28;20042;-85
2023/03/06 04:00:59;;;;;;;1.60;0.93;;;1.30;99.90;;;;;;5108316;28;20024;-84
2023/03/06 04:03:24;;;;;;;1.38;0.95;;;1.30;99.90;;;;;;5107036;28;20043;-85
2023/03/06 04:05:52;;;;;;;2.15;1.02;;;1.30;99.90;;;;;;5104180;28;20055;-84
2023/03/06 04:08:18;;;;;;;2.35;0.90;;;1.30;99.90;;;;;;5105371;28;20035;-85
2023/03/06 04:10:44;;;;;;;1.70;0.90;;;1.20;99.90;;;;;;5108149;28;20042;-84
2023/03/06 04:13:09;;;;;;;2.10;0.90;;;1.20;99.90;;;;;;5106485;28;20131;-84
2023/03/06 04:15:35;;;;;;;3.78;1.13;;;1.30;99.90;;;;;;5132891;27;20104;-85
2023/03/06 04:18:01;;;;;;;2.88;1.00;;;1.30;99.90;;;;;;5108363;28;20076;-84
2023/03/06 04:20:27;;;;;;;1.58;0.90;;;1.30;99.90;;;;;;5132323;27;20443;-85
2023/03/06 04:22:53;;;;;;;2.08;1.10;;;1.20;99.90;;;;;;5090254;28;20546;-84
2023/03/06 04:25:18;;;;;;;1.40;0.90;;;1.20;99.90;;;;;;5118010;28;20119;-84
2023/03/06 04:27:44;;;;;;;2.85;1.00;;;1.20;99.90;;;;;;5104375;28;20042;-85
2023/03/06 04:30:10;;;;;;;3.97;1.10;;;1.20;99.90;;;;;;5107041;28;20046;-84
2023/03/06 04:32:36;;;;;;;2.08;1.02;;;1.10;99.90;;;;;;5108114;28;20040;-85
2023/03/06 04:35:01;;;;;;;2.10;1.02;;;1.10;99.90;;;;;;5087498;28;20475;-84
2023/03/06 04:37:27;;;;;;;2.40;1.03;;;1.00;99.90;;;;;;5109827;28;20051;-85
2023/03/06 04:39:53;;;;;;;2.38;0.93;;;1.00;99.90;;;;;;5112857;27;20073;-85
2023/03/06 04:42:18;;;;;;;1.70;1.00;;;1.00;99.90;;;;;;5120956;27;20101;-85
2023/03/06 04:44:44;;;;;;;1.63;1.10;;;1.00;99.90;;;;;;5113667;28;20096;-85
2023/03/06 04:47:10;;;;;;;2.63;1.02;;;1.00;99.90;;;;;;5115148;27;20065;-85
2023/03/06 04:49:35;;;;;;;1.97;1.17;;;1.10;99.90;;;;;;5093319;27;20035;-85
2023/03/06 04:52:01;;;;;;;1.77;1.00;;;1.10;99.90;;;;;;5116225;27;20036;-85
2023/03/06 04:54:27;;;;;;;1.70;0.90;;;1.00;99.90;;;;;;5107726;27;20487;-84
2023/03/06 04:56:52;;;;;;;3.00;1.10;;;1.00;99.90;;;;;;5077524;28;20066;-85
2023/03/06 04:59:18;;;;;;;2.57;1.13;;;1.00;99.90;;;;;;5143908;27;20031;-85
2023/03/06 05:01:43;;;;;;;2.83;0.90;;;1.00;99.90;;;;;;5096960;28;20388;-84
2023/03/06 05:04:09;;;;;;;2.83;1.20;;;1.00;99.90;;;;;;5097457;27;20510;-85
2023/03/06 05:06:34;;;;;;;2.22;1.08;;;1.10;99.90;;;;;;5104551;27;20044;-85
2023/03/06 05:09:00;;;;;;;2.80;1.20;;;1.00;99.90;;;;;;5113454;28;20117;-84
2023/03/06 05:11:25;;;;;;;1.80;1.13;;;1.00;99.90;;;;;;5107506;27;20044;-85
2023/03/06 05:13:51;;;;;;;1.83;1.10;;;1.10;99.90;;;;;;5110575;28;20118;-85
2023/03/06 05:16:17;;;;;;;1.57;0.90;;;1.10;99.90;;;;;;5109312;27;20043;-85
2023/03/06 05:18:42;;;;;;;2.13;1.20;;;1.20;99.90;;;;;;5108262;27;20038;-85
2023/03/06 05:21:08;;;;;;;2.70;1.30;;;1.20;99.90;;;;;;5094105;28;20119;-84
2023/03/06 05:23:37;;;;;;;1.77;1.10;;;1.10;99.90;;;;;;5111689;28;20089;-84
2023/03/06 05:26:13;;;;;;;2.13;1.30;;;1.10;99.90;;;;;;5111944;27;20081;-84
2023/03/06 05:28:39;;;;;;;3.30;1.50;;;1.10;99.90;;;;;;5096909;28;20035;-84
2023/03/06 05:31:06;;;;;;;1.90;1.30;;;1.00;99.90;;;;;;5095806;28;20488;-82
2023/03/06 05:33:32;;;;;;;2.63;1.10;;;1.10;99.90;;;;;;5112860;27;20046;-82
2023/03/06 05:35:59;;;;;;;1.95;1.33;;;1.10;99.90;;;;;;5111178;27;20039;-82
2023/03/06 05:38:24;;;;;;;2.70;1.38;;;1.10;99.90;;;;;;5109360;27;20036;-82
2023/03/06 05:40:50;;;;;;;2.53;1.30;;;1.10;99.90;;;;;;5117251;27;20477;-84
2023/03/06 05:43:16;;;;;;;2.93;1.53;;;1.00;99.90;;;;;;5102537;27;20045;-84
2023/03/06 05:45:41;;;;;;;2.53;1.53;;;1.00;99.90;;;;;;5104871;28;20464;-84
2023/03/06 05:48:09;;;;;;;2.22;1.60;;;1.00;99.90;;;;;;5094646;28;20039;-85
2023/03/06 05:50:34;;;;;;;4.70;1.93;;;1.00;99.90;;;;;;5095744;28;20444;-84
2023/03/06 05:53:00;;;;;;;2.40;1.50;;;1.00;99.90;;;;;;5110286;27;20042;-84
2023/03/06 05:55:25;;;;;;;3.97;1.80;;;1.00;99.90;;;;;;5112740;27;20039;-85
2023/03/06 05:57:52;;;;;;;3.87;1.70;;;0.90;99.90;;;;;;5107321;28;20409;-84
2023/03/06 06:00:19;;;;;;;2.70;1.57;;;1.00;99.90;;;;;;5110749;28;20039;-85
2023/03/06 06:02:45;;;;;;;3.73;2.00;;;1.00;99.90;;;;;;5108310;28;20534;-85
2023/03/06 06:05:11;;;;;;;2.47;1.70;;;1.00;99.90;;;;;;5104953;28;20039;-84
2023/03/06 06:07:36;;;;;;;2.43;1.73;;;1.10;99.90;;;;;;5128750;27;20483;-84
2023/03/06 06:10:03;;;;;;;3.70;1.77;;;1.10;99.90;;;;;;5094682;28;20040;-84
2023/03/06 06:12:28;;;;;;;3.27;1.87;;;1.00;99.90;;;;;;5103708;27;20055;-84
2023/03/06 06:14:54;;;;;;;4.57;2.07;;;1.00;99.90;;;;;;5115300;27;20491;-84
2023/03/06 06:17:20;;;;;;;2.77;1.83;;;0.90;99.90;;;;;;5145733;27;20155;-84
2023/03/06 06:19:45;;;;;;;4.70;2.33;;;0.90;99.90;;;;;;5108500;27;20036;-85
2023/03/06 06:22:11;;;;;;;3.50;2.20;;;0.80;99.90;;;;;;5110116;28;20042;-85
2023/03/06 06:24:37;;;;;;;2.97;1.83;;;0.80;99.90;;;;;;5090752;28;20122;-85
2023/03/06 06:27:02;;;;;;;3.43;2.30;;;0.80;99.90;;;;;;5106164;27;20450;-85
2023/03/06 06:29:28;;;;;;;4.07;2.20;;;0.70;99.90;;;;;;5097328;27;20494;-85
2023/03/06 06:31:55;;;;;;;3.87;2.40;;;0.60;99.90;;;;;;5106880;28;20036;-85
2023/03/06 06:34:22;;;;;;;4.03;2.50;;;0.50;99.90;;;;;;5112728;27;20046;-85
2023/03/06 06:36:48;;;;;;;3.80;2.43;;;0.50;99.90;;;;;;5088614;27;20039;-85
2023/03/06 06:39:16;;;;;;;5.47;2.70;;;0.50;99.90;;;;;;5109150;27;20032;-84
2023/03/06 06:41:42;;;;;;;5.23;3.10;;;0.50;99.90;;;;;;5087452;28;20031;-85
2023/03/06 06:44:12;;;;;;;4.10;3.17;;;0.40;99.90;;;;;;5091053;28;20076;-85
2023/03/06 06:46:38;;;;;;;4.70;3.40;;;0.40;99.90;;;;;;5105913;28;20047;-85
2023/03/06 06:49:04;;;;;;;5.20;3.80;;;0.40;99.90;;;;;;5103611;28;20126;-84
2023/03/06 06:51:31;;;;;;;8.00;5.00;;;0.30;99.90;;;;;;5110312;27;20054;-86
2023/03/06 06:53:57;;;;;;;6.40;4.23;;;0.30;99.90;;;;;;5091524;28;20039;-85
2023/03/06 06:56:23;;;;;;;8.10;3.97;;;0.30;99.90;;;;;;5103776;28;20036;-86
2023/03/06 06:58:51;;;;;;;4.73;3.50;;;0.40;99.90;;;;;;5088378;28;20681;-85
2023/03/06 07:01:16;;;;;;;4.33;2.80;;;0.30;99.90;;;;;;5103129;28;20043;-85
2023/03/06 07:03:42;;;;;;;5.43;3.27;;;0.30;99.90;;;;;;5099648;27;20032;-86
2023/03/06 07:06:08;;;;;;;4.00;2.80;;;0.50;99.90;;;;;;5108257;28;20418;-84
2023/03/06 07:08:34;;;;;;;5.47;3.13;;;0.40;99.90;;;;;;5132933;27;20035;-85
2023/03/06 07:11:06;;;;;;;4.53;3.10;;;0.40;99.90;;;;;;5107820;28;20039;-84
2023/03/06 07:13:31;;;;;;;4.90;3.03;;;0.50;99.90;;;;;;5088974;28;20483;-85
2023/03/06 07:15:57;;;;;;;5.13;2.90;;;0.50;99.90;;;;;;5108273;28;20044;-86
2023/03/06 07:18:22;;;;;;;4.10;3.00;;;0.50;99.90;;;;;;5132371;27;20072;-84
2023/03/06 07:20:48;;;;;;;5.23;3.37;;;0.60;99.90;;;;;;5109021;28;20035;-85
2023/03/06 07:23:13;;;;;;;3.83;2.73;;;0.60;99.90;;;;;;5100839;27;20114;-84
2023/03/06 07:25:39;;;;;;;4.07;2.60;;;0.60;99.90;;;;;;5106057;28;20047;-86
2023/03/06 07:28:04;;;;;;;6.53;2.67;;;0.70;99.90;;;;;;5134991;27;20458;-85
2023/03/06 07:30:30;;;;;;;4.03;2.70;;;0.70;99.90;;;;;;5106091;28;20032;-85
2023/03/06 07:32:57;;;;;;;4.53;2.63;;;0.70;99.90;;;;;;5109476;27;20036;-85
2023/03/06 07:35:24;;;;;;;5.73;2.33;;;0.80;99.90;;;;;;5105647;28;20052;-85
2023/03/06 07:37:50;;;;;;;4.00;2.80;;;0.90;99.90;;;;;;5111019;27;20459;-85
2023/03/06 07:40:16;;;;;;;5.67;2.90;;;0.90;99.90;;;;;;5106890;27;20524;-85
2023/03/06 07:42:42;;;;;;;4.03;2.80;;;1.00;99.90;;;;;;5104449;28;20039;-85
2023/03/06 07:45:09;;;;;;;3.60;2.27;;;1.00;99.90;;;;;;5098262;28;20035;-85
2023/03/06 07:47:34;;;;;;;3.43;2.47;;;1.10;99.90;;;;;;5089479;28;20097;-85
2023/03/06 07:50:03;;;;;;;3.63;2.53;;;1.10;99.90;;;;;;5096714;28;20043;-85
2023/03/06 07:52:28;;;;;;;5.33;3.00;;;1.20;99.90;;;;;;5091927;28;20043;-86
2023/03/06 07:54:54;;;;;;;5.40;3.07;;;1.30;99.90;;;;;;5138635;27;20512;-85
2023/03/06 07:57:19;;;;;;;5.83;3.50;;;1.30;99.90;;;;;;5105882;28;20115;-85
2023/03/06 07:59:45;;;;;;;6.73;3.70;;;1.40;99.90;;;;;;5109027;28;20080;-85
2023/03/06 08:02:11;;;;;;;4.30;3.80;;;1.50;99.90;;;;;;5137001;27;20032;-85
2023/03/06 08:04:36;;;;;;;5.47;4.13;;;1.70;99.90;;;;;;5092203;28;20028;-85
2023/03/06 08:07:02;;;;;;;5.23;4.53;;;1.80;99.90;;;;;;5139403;27;20047;-84
2023/03/06 08:09:28;;;;;;;5.67;4.13;;;2.00;99.90;;;;;;5104507;28;20043;-84
2023/03/06 08:11:53;;;;;;;5.93;3.50;;;2.20;99.90;;;;;;5110657;28;20039;-84
2023/03/06 08:14:19;;;;;;;4.83;3.40;;;2.30;99.90;;;;;;5126595;27;20066;-84
2023/03/06 08:16:44;;;;;;;4.67;3.30;;;2.40;99.90;;;;;;5107041;28;20410;-84
2023/03/06 08:19:10;;;;;;;4.87;3.43;;;2.40;99.90;;;;;;5143099;27;20043;-84
2023/03/06 08:21:36;;;;;;;5.27;3.10;;;2.40;99.90;;;;;;5096776;28;20027;-84
2023/03/06 08:24:01;;;;;;;4.38;3.17;;;2.50;99.90;;;;;;5122874;27;20035;-84
2023/03/06 08:26:29;;;;;;;3.93;2.60;;;2.60;99.90;;;;;;5140105;27;20046;-84
2023/03/06 08:28:58;;;;;;;4.75;2.95;;;2.60;99.90;;;;;;5093392;28;20039;-84
2023/03/06 08:31:37;;;;;;;3.50;2.35;;;2.60;99.90;;;;;;5092186;28;20109;-84
2023/03/06 08:34:06;;;;;;;4.18;1.90;;;2.60;99.90;;;;;;5090728;28;20047;-85
2023/03/06 08:36:32;;;;;;;3.22;1.85;;;2.50;99.90;;;;;;5088147;28;20083;-84
2023/03/06 08:38:58;;;;;;;4.78;2.00;;;2.50;99.90;;;;;;5111762;28;20074;-85
2023/03/06 08:41:24;;;;;;;4.05;2.20;;;2.60;99.90;;;;;;5109886;28;20078;-85
2023/03/06 08:43:50;;;;;;;4.55;2.20;;;2.70;99.90;;;;;;5095392;28;20027;-84
2023/03/06 08:46:20;;;;;;;4.63;2.47;;;2.80;99.90;;;;;;5110368;28;20067;-86
2023/03/06 08:48:47;;;;;;;3.00;2.10;;;2.90;99.90;;;;;;5099950;27;20090;-85
2023/03/06 08:51:16;;;;;;;3.72;2.08;;;2.90;99.90;;;;;;5096379;28;20134;-87
2023/03/06 08:53:41;;;;;;;3.70;1.90;;;3.00;99.90;;;;;;5090042;27;20084;-85
2023/03/06 08:56:07;;;;;;;3.97;1.92;;;3.20;99.90;;;;;;5094619;27;20498;-85
2023/03/06 08:58:33;;;;;;;4.05;2.03;;;3.30;99.90;;;;;;5095420;28;20505;-85
2023/03/06 09:00:58;;;;;;;5.03;2.00;;;3.50;99.90;;;;;;5111344;27;20422;-85
2023/03/06 09:03:25;;;;;;;5.15;1.90;;;3.50;99.90;;;;;;5109269;28;20031;-85
2023/03/06 09:05:50;;;;;;;3.97;1.85;;;3.70;99.90;;;;;;5109568;27;20036;-85
2023/03/06 09:08:16;;;;;;;3.88;2.17;;;3.80;99.90;;;;;;5101577;27;20043;-85
2023/03/06 09:10:46;;;;;;;6.47;2.10;;;3.90;99.90;;;;;;5124639;27;20027;-85
2023/03/06 09:13:12;;;;;;;2.97;1.30;;;4.00;99.90;;;;;;5096396;27;20503;-85
2023/03/06 09:15:37;;;;;;;5.32;1.40;;;4.20;99.90;;;;;;5108077;28;20032;-85
2023/03/06 09:18:03;;;;;;;3.60;1.40;;;4.40;99.90;;;;;;5093354;28;20028;-85
2023/03/06 09:20:29;;;;;;;3.65;1.50;;;4.40;99.90;;;;;;5105478;27;20040;-86
2023/03/06 09:22:54;;;;;;;4.32;1.58;;;4.40;99.90;;;;;;5132545;27;20714;-85
2023/03/06 09:25:22;;;;;;;4.30;1.52;;;4.40;99.90;;;;;;5109169;27;20051;-85
2023/03/06 09:27:48;;;;;;;2.55;1.40;;;4.40;99.90;;;;;;5109987;28;20118;-85
2023/03/06 09:30:16;;;;;;;2.47;1.27;;;4.40;99.90;;;;;;5092898;28;20043;-85
2023/03/06 09:32:42;;;;;;;3.28;1.40;;;4.40;99.90;;;;;;5103366;28;20032;-86
2023/03/06 09:35:09;;;;;;;3.33;1.30;;;4.50;99.90;;;;;;5110405;27;20406;-85
2023/03/06 09:37:34;;;;;;;3.05;1.55;;;4.50;99.90;;;;;;5090505;28;20047;-86
2023/03/06 09:40:00;;;;;;;1.70;0.75;;;4.50;99.90;;;;;;5109287;28;20031;-86
2023/03/06 09:42:27;;;;;;;2.22;0.80;;;4.60;99.90;;;;;;5106610;28;20123;-86
2023/03/06 09:44:55;;;;;;;6.35;1.73;;;4.70;99.90;;;;;;5106727;28;20039;-86
2023/03/06 09:47:36;;;;;;;3.47;0.50;;;4.80;99.90;;;;;;5106748;27;21498;-86
2023/03/06 09:50:25;;;;;;;2.70;0.57;;;5.00;99.90;;;;;;5134994;27;20040;-85
2023/03/06 09:53:28;;;;;;;1.65;0.30;;;5.20;99.90;;;;;;5090272;28;20040;-86
2023/03/06 09:56:12;;;;;;;1.40;0.52;;;5.30;99.90;;;;;;5105063;28;20082;-86
2023/03/06 09:58:46;;;;;;;2.72;0.57;;;5.60;99.90;;;;;;5103402;27;20031;-86
2023/03/06 10:01:30;;;;;;;1.65;0.40;;;5.60;99.90;;;;;;5114214;27;20047;-85
2023/03/06 10:04:09;;;;;;;1.30;0.30;;;5.50;99.90;;;;;;5128516;27;20084;-85
2023/03/06 10:06:48;;;;;;;2.58;0.50;;;5.50;99.90;;;;;;5090639;28;20047;-85
2023/03/06 10:09:21;;;;;;;3.92;0.40;;;5.50;99.90;;;;;;5134091;27;20035;-85
2023/03/06 10:11:53;;;;;;;1.58;0.50;;;5.40;99.90;;;;;;5090855;28;20047;-85
2023/03/06 10:14:36;;;;;;;0.70;0.30;;;5.40;99.90;;;;;;5115775;27;20096;-86
2023/03/06 10:17:03;;;;;;;3.53;0.50;;;5.50;99.90;;;;;;5108879;27;20047;-85
2023/03/06 10:19:34;;;;;;;3.60;0.55;;;5.60;99.90;;;;;;5109335;27;20032;-85
2023/03/06 10:22:18;;;;;;;3.85;0.40;;;5.80;99.90;;;;;;5108557;27;20051;-85
2023/03/06 10:25:02;;;;;;;0.55;0.30;;;5.90;99.90;;;;;;5086764;28;20063;-85
2023/03/06 10:27:49;;;;;;;0.98;0.40;;;6.00;99.90;;;;;;5107562;27;20053;-85
2023/03/06 10:30:25;;;;;;;3.08;0.60;;;6.10;99.90;;;;;;5112892;27;20032;-85
2023/03/06 10:33:29;;;;;;;3.00;0.63;;;6.00;99.90;;;;;;5101202;28;20122;-86
2023/03/06 10:35:55;;;;;;;2.78;0.40;;;6.20;99.90;;;;;;5100642;27;20516;-85
2023/03/06 10:38:21;;;;;;;2.10;0.52;;;6.40;99.90;;;;;;5089478;28;20115;-85
2023/03/06 10:41:09;;;;;;;3.38;0.90;;;6.40;99.90;;;;;;5106923;27;20177;-85
2023/03/06 10:43:37;;;;;;;2.55;0.73;;;6.30;99.90;;;;;;5141294;27;20054;-85
2023/03/06 10:46:04;;;;;;;3.38;0.70;;;6.40;99.90;;;;;;5098343;28;20490;-86
2023/03/06 10:48:34;;;;;;;0.98;0.60;;;6.40;99.90;;;;;;5104236;28;20040;-86
2023/03/06 10:51:22;;;;;;;2.55;0.50;;;6.20;99.90;;;;;;5110771;28;20082;-85
2023/03/06 10:54:00;;;;;;;1.40;0.47;;;6.10;99.90;;;;;;5106420;27;20047;-85
2023/03/06 10:56:29;;;;;;;1.58;0.50;;;6.40;99.90;;;;;;5110355;27;20555;-85
2023/03/06 10:59:11;;;;;;;1.10;0.50;;;6.50;99.90;;;;;;5091522;28;20032;-86
2023/03/06 11:01:42;;;;;;;1.27;0.55;;;6.50;99.90;;;;;;5120896;27;20035;-85
2023/03/06 11:04:25;;;;;;;3.20;0.70;;;6.40;99.90;;;;;;5086289;28;20036;-86
2023/03/06 11:07:22;;;;;;;3.15;0.60;;;6.20;99.90;;;;;;5110292;27;20445;-86
2023/03/06 11:09:57;;;;;;;4.13;0.77;;;6.30;99.90;;;;;;5096606;28;20035;-85
2023/03/06 11:12:35;;;;;;;1.88;0.65;;;6.40;99.90;;;;;;5081024;28;20040;-86
2023/03/06 11:15:16;;;;;;;2.72;0.68;;;6.30;99.90;;;;;;5095060;28;20039;-86
2023/03/06 11:17:51;;;;;;;4.30;0.80;;;6.20;99.90;;;;;;5093979;28;20044;-85
2023/03/06 11:20:17;;;;;;;3.28;0.73;;;5.90;99.90;;;;;;5111214;28;20050;-86
2023/03/06 11:22:55;;;;;;;1.42;0.60;;;5.70;99.90;;;;;;5080230;28;20036;-86
2023/03/06 11:25:25;;;;;;;1.83;0.70;;;5.70;99.90;;;;;;5140526;27;20039;-85
2023/03/06 11:28:02;;;;;;;2.63;0.90;;;6.00;99.90;;;;;;5110964;28;20046;-85
2023/03/06 11:30:43;;;;;;;2.42;0.65;;;6.40;99.90;;;;;;5093704;28;20039;-86
2023/03/06 11:33:20;;;;;;;3.03;0.80;;;6.70;99.90;;;;;;5109785;28;20173;-86
2023/03/06 11:36:04;;;;;;;2.88;1.00;;;7.00;99.90;;;;;;5144458;27;20506;-85
2023/03/06 11:38:46;;;;;;;3.00;1.00;;;7.10;99.90;;;;;;5111769;27;20383;-85
2023/03/06 11:41:38;;;;;;;2.90;0.98;;;6.90;99.90;;;;;;5111946;27;20066;-86
2023/03/06 11:44:28;;;;;;;2.85;1.08;;;6.60;99.90;;;;;;5074947;27;20070;-87
2023/03/06 11:47:20;;;;;;;5.03;1.10;;;6.30;99.90;;;;;;5108617;27;20039;-86
2023/03/06 11:49:54;;;;;;;3.05;0.98;;;6.00;99.90;;;;;;5077913;28;20131;-85
2023/03/06 11:52:41;;;;;;;2.90;0.80;;;5.90;99.90;;;;;;5083200;28;20055;-86
2023/03/06 11:55:14;;;;;;;1.98;0.80;;;5.80;99.90;;;;;;5107355;28;20032;-86
2023/03/06 11:58:03;;;;;;;2.58;0.98;;;5.80;99.90;;;;;;5096542;28;20408;-86
2023/03/06 12:00:56;;;;;;;4.30;0.95;;;5.80;99.90;;;;;;5117138;27;20045;-85
2023/03/06 12:03:22;;;;;;;1.90;0.80;;;5.80;99.90;;;;;;5119142;27;20541;-84
2023/03/06 12:06:04;;;;;;;2.28;0.70;;;6.00;99.90;;;;;;5101327;28;20126;-85
2023/03/06 12:08:39;;;;;;;2.70;0.80;;;6.00;99.90;;;;;;5085236;28;20044;-85
2023/03/06 12:11:18;;;;;;;2.08;0.65;;;6.10;99.90;;;;;;5094242;28;20035;-85
2023/03/06 12:14:03;;;;;;;3.58;0.90;;;6.40;99.90;;;;;;5092757;28;20120;-85
2023/03/06 12:17:04;;;;;;;2.17;0.70;;;6.70;99.90;;;;;;5115285;28;20046;-85
2023/03/06 12:19:42;;;;;;;1.60;0.60;;;6.80;99.90;;;;;;5108395;28;20443;-84
2023/03/06 12:22:25;;;;;;;1.58;0.60;;;6.60;99.90;;;;;;5107253;28;20061;-84
2023/03/06 12:25:17;;;;;;;5.10;1.02;;;6.60;99.90;;;;;;5094607;28;20088;-85
2023/03/06 12:27:55;;;;;;;2.50;0.70;;;6.40;99.90;;;;;;5129752;27;20105;-85
2023/03/06 12:30:32;;;;;;;1.92;0.80;;;6.50;99.90;;;;;;5090410;28;20039;-85
2023/03/06 12:33:28;;;;;;;4.88;0.85;;;6.60;99.90;;;;;;5095744;28;20036;-85
2023/03/06 12:36:32;;;;;;;1.77;0.80;;;6.80;99.90;;;;;;5102886;28;20039;-84
2023/03/06 12:39:35;;;;;;;3.10;0.70;;;7.00;99.90;;;;;;5085940;28;20092;-85
2023/03/06 12:42:11;;;;;;;3.42;1.30;;;7.00;99.90;;;;;;5083462;28;20042;-84
2023/03/06 12:44:42;;;;;;;2.63;0.90;;;6.90;99.90;;;;;;5084409;28;20043;-85
2023/03/06 12:47:10;;;;;;;2.22;0.75;;;6.90;99.90;;;;;;5090227;28;20523;-85
2023/03/06 12:49:40;;;;;;;1.27;0.60;;;6.80;99.90;;;;;;5105528;28;20499;-84
2023/03/06 12:52:08;;;;;;;0.73;0.32;;;6.80;99.90;;;;;;5103851;28;20096;-85
2023/03/06 12:54:40;;;;;;;1.20;0.47;;;6.90;99.90;;;;;;5092431;28;20040;-85
2023/03/06 12:57:07;;;;;;;1.85;0.77;;;7.00;99.90;;;;;;5107374;28;20040;-85
2023/03/06 12:59:36;;;;;;;2.53;0.40;;;7.00;99.90;;;;;;5104245;28;20032;-84
2023/03/06 13:02:32;;;;;;;1.27;0.60;;;7.00;99.90;;;;;;5112002;28;20040;-85
2023/03/06 13:05:28;;;;;;;1.42;0.60;;;7.00;99.90;;;;;;5105418;28;20394;-85
2023/03/06 13:08:11;;;;;;;1.50;0.40;;;6.90;99.90;;;;;;5103336;28;20039;-84
2023/03/06 13:10:39;;;;;;;3.15;0.57;;;7.10;99.90;;;;;;5112856;27;20032;-85